createdAt,value
2022-11-21T00:01:27.362Z,36.70
2022-11-21T00:08:08.416Z,36.50
2022-11-21T00:14:49.412Z,33.20
2022-11-21T00:21:31.163Z,30.50
2022-11-21T00:27:32.438Z,31.80
2022-11-21T00:34:16.373Z,31.30
2022-11-21T00:40:57.342Z,27.30
2022-11-21T00:47:38.433Z,30.80
2022-11-21T00:54:20.234Z,29.50
2022-11-21T01:00:42.222Z,24.90
2022-11-21T01:07:04.346Z,26.50
2022-11-21T01:13:45.341Z,27.50
2022-11-21T01:20:26.475Z,28.60
2022-11-21T01:27:08.601Z,28.10
2022-11-21T01:33:50.056Z,27.20
2022-11-21T01:40:32.158Z,25.90
2022-11-21T01:47:13.003Z,27.40
2022-11-21T01:53:38.287Z,28.80
2022-11-21T02:00:28.494Z,29.30
2022-11-21T02:07:10.106Z,29.30
2022-11-21T02:13:51.860Z,31.80
2022-11-21T02:20:44.102Z,29.10
2022-11-21T02:27:56.387Z,31.10
2022-11-21T02:34:37.420Z,30.90
2022-11-21T02:41:21.152Z,30.50
2022-11-21T02:48:04.460Z,30.30
2022-11-21T02:54:46.278Z,27.50
2022-11-21T03:01:27.666Z,27.70
2022-11-21T03:08:09.724Z,29.30
2022-11-21T03:14:51.352Z,28.20
2022-11-21T03:21:32.791Z,28.70
2022-11-21T03:28:14.144Z,30.20
2022-11-21T03:34:55.959Z,27.60
2022-11-21T03:41:49.643Z,26.40
2022-11-21T03:48:31.196Z,27.20
2022-11-21T03:55:12.059Z,28.60
2022-11-21T04:01:53.217Z,25.80
2022-11-21T04:08:35.036Z,25.20
2022-11-21T04:15:16.627Z,30.00
2022-11-21T04:21:58.656Z,26.90
2022-11-21T04:28:41.739Z,27.20
2022-11-21T04:35:23.659Z,27.70
2022-11-21T04:42:04.930Z,26.10
2022-11-21T04:48:46.602Z,28.20
2022-11-21T04:55:27.986Z,28.20
2022-11-21T05:02:09.937Z,28.90
2022-11-21T05:08:53.584Z,28.60
2022-11-21T05:15:35.917Z,30.40
2022-11-21T05:22:17.608Z,32.20
2022-11-21T05:28:59.311Z,35.10
2022-11-21T05:35:49.087Z,36.40
2022-11-21T05:42:30.547Z,37.20
2022-11-21T05:49:21.110Z,34.40
2022-11-21T05:56:02.863Z,32.50
2022-11-21T06:02:43.517Z,31.60
2022-11-21T06:09:25.471Z,35.80
2022-11-21T06:16:05.843Z,40.20
2022-11-21T06:22:48.982Z,46.40
2022-11-21T06:29:30.598Z,55.90
2022-11-21T06:35:53.105Z,45.50
2022-11-21T06:42:03.636Z,43.60
2022-11-21T06:48:44.900Z,43.00
2022-11-21T06:55:26.598Z,44.70
2022-11-21T07:01:50.723Z,46.20
2022-11-21T07:08:43.907Z,46.00
2022-11-21T07:15:25.667Z,43.50
2022-11-21T07:22:07.377Z,44.10
2022-11-21T07:28:50.359Z,44.50
2022-11-21T07:35:33.193Z,43.60
2022-11-21T07:42:14.366Z,45.30
2022-11-21T07:49:03.088Z,46.80
2022-11-21T07:55:46.288Z,45.50
2022-11-21T08:02:27.835Z,44.30
2022-11-21T08:09:10.375Z,46.40
2022-11-21T08:15:52.378Z,43.90
2022-11-21T08:22:34.663Z,44.80
2022-11-21T08:29:19.959Z,44.10
2022-11-21T08:36:03.658Z,41.20
2022-11-21T08:42:45.200Z,36.80
2022-11-21T08:49:31.464Z,41.10
2022-11-21T08:56:16.270Z,37.80
2022-11-21T09:03:11.271Z,34.00
2022-11-21T09:15:32.559Z,34.80
2022-11-21T10:44:09.115Z,29.50
2022-11-21T10:51:06.426Z,29.90
2022-11-21T10:58:31.591Z,29.70
2022-11-21T11:05:36.725Z,28.10
2022-11-21T11:43:16.409Z,14.70
2022-11-21T11:49:24.646Z,11.50
2022-11-21T11:55:47.604Z,11.50
2022-11-21T12:02:43.801Z,13.60
2022-11-21T12:09:36.012Z,15.90
2022-11-21T12:15:39.261Z,14.40
2022-11-21T12:21:19.632Z,10.60
2022-11-21T12:27:54.606Z,10.20
2022-11-21T12:35:16.400Z,14.00
2022-11-21T12:42:10.151Z,12.00
2022-11-21T12:49:10.646Z,12.30
2022-11-21T12:55:54.551Z,10.70
2022-11-21T13:02:24.416Z,11.20
2022-11-21T13:09:09.422Z,11.60
2022-11-21T13:15:58.532Z,12.40
2022-11-21T13:22:49.775Z,11.10
2022-11-21T13:29:35.207Z,12.00
2022-11-21T14:30:38.272Z,13.40
2022-11-21T14:36:22.938Z,13.50
2022-11-21T14:49:04.638Z,14.60
2022-11-21T14:56:13.598Z,14.90
2022-11-21T15:03:45.335Z,16.20
2022-11-21T15:39:14.986Z,15.80
2022-11-21T16:20:05.319Z,31.00
2022-11-21T16:34:15.302Z,38.70
2022-11-21T16:41:30.550Z,43.60
2022-11-21T16:48:26.284Z,39.00
2022-11-21T16:55:15.338Z,35.90
2022-11-21T17:02:26.574Z,33.60
2022-11-21T20:42:36.349Z,32.60
2022-11-21T20:49:19.146Z,30.10
2022-11-21T20:56:04.269Z,29.90
2022-11-21T21:03:13.062Z,34.90
2022-11-21T21:16:27.227Z,42.50
2022-11-21T21:23:13.676Z,36.40
2022-11-21T21:29:57.535Z,30.70
2022-11-21T21:36:46.723Z,31.50
2022-11-21T21:43:31.295Z,29.30
2022-11-21T21:50:16.085Z,35.60
2022-11-21T21:56:59.596Z,35.40
2022-11-21T22:03:43.840Z,34.90
2022-11-21T22:10:06.907Z,37.10
2022-11-21T22:16:30.208Z,29.60
2022-11-21T22:23:17.157Z,36.40
2022-11-21T22:29:57.931Z,39.10
2022-11-21T22:36:43.356Z,37.30
2022-11-21T22:43:06.708Z,37.30
2022-11-21T22:49:24.829Z,43.90
2022-11-21T22:54:49.406Z,41.20
2022-11-21T23:00:12.836Z,43.60
2022-11-21T23:05:34.768Z,50.00
2022-11-21T23:11:03.677Z,49.70
2022-11-21T23:16:26.412Z,46.30
2022-11-21T23:21:48.128Z,48.70
2022-11-21T23:27:10.650Z,44.30
2022-11-21T23:32:32.680Z,51.40
2022-11-21T23:37:54.988Z,50.40
2022-11-21T23:43:18.334Z,50.20
2022-11-21T23:48:42.076Z,45.20
2022-11-21T23:54:05.973Z,54.00
2022-11-21T23:59:28.560Z,67.70
